sensor_id;sensor_type;location;lat;lon;timestamp;P1;durP1;ratioP1;P2;durP2;ratioP2
27558;SDS011;15002;52.028;5.670;2023-09-08T00:02:23;10.13;;;8.35;;
27558;SDS011;15002;52.028;5.670;2023-09-08T00:04:50;12.52;;;7.93;;
27558;SDS011;15002;52.028;5.670;2023-09-08T00:07:15;12.05;;;7.88;;
27558;SDS011;15002;52.028;5.670;2023-09-08T00:09:41;12.30;;;7.90;;
27558;SDS011;15002;52.028;5.670;2023-09-08T00:12:07;9.98;;;8.00;;
27558;SDS011;15002;52.028;5.670;2023-09-08T00:14:32;11.20;;;7.63;;
27558;SDS011;15002;52.028;5.670;2023-09-08T00:16:58;12.18;;;7.70;;
27558;SDS011;15002;52.028;5.670;2023-09-08T00:19:24;9.98;;;8.23;;
27558;SDS011;15002;52.028;5.670;2023-09-08T00:21:50;8.32;;;7.45;;
27558;SDS011;15002;52.028;5.670;2023-09-08T00:24:16;12.48;;;7.72;;
27558;SDS011;15002;52.028;5.670;2023-09-08T00:26:42;9.77;;;7.68;;
27558;SDS011;15002;52.028;5.670;2023-09-08T00:29:08;10.80;;;7.60;;
27558;SDS011;15002;52.028;5.670;2023-09-08T00:31:34;11.15;;;8.43;;
27558;SDS011;15002;52.028;5.670;2023-09-08T00:33:59;8.88;;;7.88;;
27558;SDS011;15002;52.028;5.670;2023-09-08T00:36:25;9.30;;;8.07;;
27558;SDS011;15002;52.028;5.670;2023-09-08T00:38:50;9.32;;;8.18;;
27558;SDS011;15002;52.028;5.670;2023-09-08T00:41:16;12.00;;;8.35;;
27558;SDS011;15002;52.028;5.670;2023-09-08T00:43:42;11.95;;;8.90;;
27558;SDS011;15002;52.028;5.670;2023-09-08T00:46:07;10.73;;;8.02;;
27558;SDS011;15002;52.028;5.670;2023-09-08T00:48:34;10.05;;;8.50;;
27558;SDS011;15002;52.028;5.670;2023-09-08T00:51:00;12.02;;;8.75;;
27558;SDS011;15002;52.028;5.670;2023-09-08T00:53:26;11.27;;;8.00;;
27558;SDS011;15002;52.028;5.670;2023-09-08T00:55:52;9.05;;;7.97;;
27558;SDS011;15002;52.028;5.670;2023-09-08T00:58:19;12.68;;;7.95;;
27558;SDS011;15002;52.028;5.670;2023-09-08T01:00:45;10.88;;;8.18;;
27558;SDS011;15002;52.028;5.670;2023-09-08T01:03:12;13.18;;;8.10;;
27558;SDS011;15002;52.028;5.670;2023-09-08T01:05:37;10.98;;;7.93;;
27558;SDS011;15002;52.028;5.670;2023-09-08T01:08:04;9.00;;;7.78;;
27558;SDS011;15002;52.028;5.670;2023-09-08T01:10:30;9.80;;;8.27;;
27558;SDS011;15002;52.028;5.670;2023-09-08T01:12:59;11.02;;;8.38;;
27558;SDS011;15002;52.028;5.670;2023-09-08T01:15:25;9.20;;;7.97;;
27558;SDS011;15002;52.028;5.670;2023-09-08T01:17:51;11.15;;;8.43;;
27558;SDS011;15002;52.028;5.670;2023-09-08T01:20:24;12.90;;;9.70;;
27558;SDS011;15002;52.028;5.670;2023-09-08T01:25:38;11.38;;;8.68;;
27558;SDS011;15002;52.028;5.670;2023-09-08T01:28:10;9.98;;;8.35;;
27558;SDS011;15002;52.028;5.670;2023-09-08T01:30:37;12.05;;;8.07;;
27558;SDS011;15002;52.028;5.670;2023-09-08T01:33:04;10.52;;;8.85;;
27558;SDS011;15002;52.028;5.670;2023-09-08T01:35:30;10.68;;;8.93;;
27558;SDS011;15002;52.028;5.670;2023-09-08T01:37:56;12.00;;;8.68;;
27558;SDS011;15002;52.028;5.670;2023-09-08T01:40:22;12.60;;;9.68;;
27558;SDS011;15002;52.028;5.670;2023-09-08T01:42:48;13.27;;;8.68;;
27558;SDS011;15002;52.028;5.670;2023-09-08T01:45:14;11.15;;;8.70;;
27558;SDS011;15002;52.028;5.670;2023-09-08T01:47:40;9.77;;;8.60;;
27558;SDS011;15002;52.028;5.670;2023-09-08T01:50:05;13.68;;;9.27;;
27558;SDS011;15002;52.028;5.670;2023-09-08T01:52:31;12.82;;;9.70;;
27558;SDS011;15002;52.028;5.670;2023-09-08T01:54:57;9.95;;;8.93;;
27558;SDS011;15002;52.028;5.670;2023-09-08T01:57:22;13.13;;;9.63;;
27558;SDS011;15002;52.028;5.670;2023-09-08T01:59:48;9.60;;;8.55;;
27558;SDS011;15002;52.028;5.670;2023-09-08T02:02:14;11.32;;;8.82;;
27558;SDS011;15002;52.028;5.670;2023-09-08T02:04:40;10.43;;;9.25;;
27558;SDS011;15002;52.028;5.670;2023-09-08T02:07:05;14.93;;;9.43;;
27558;SDS011;15002;52.028;5.670;2023-09-08T02:09:31;17.95;;;9.40;;
27558;SDS011;15002;52.028;5.670;2023-09-08T02:11:58;11.98;;;9.70;;
27558;SDS011;15002;52.028;5.670;2023-09-08T02:14:24;12.55;;;9.40;;
27558;SDS011;15002;52.028;5.670;2023-09-08T02:16:49;10.70;;;9.30;;
27558;SDS011;15002;52.028;5.670;2023-09-08T02:19:15;10.63;;;8.75;;
27558;SDS011;15002;52.028;5.670;2023-09-08T02:21:41;13.45;;;9.52;;
27558;SDS011;15002;52.028;5.670;2023-09-08T02:24:06;15.55;;;9.10;;
27558;SDS011;15002;52.028;5.670;2023-09-08T02:26:32;10.88;;;8.90;;
27558;SDS011;15002;52.028;5.670;2023-09-08T02:28:59;9.68;;;8.65;;
27558;SDS011;15002;52.028;5.670;2023-09-08T02:31:26;12.60;;;8.98;;
27558;SDS011;15002;52.028;5.670;2023-09-08T02:33:52;12.85;;;8.82;;
27558;SDS011;15002;52.028;5.670;2023-09-08T02:36:17;11.32;;;9.48;;
27558;SDS011;15002;52.028;5.670;2023-09-08T02:38:50;11.15;;;8.80;;
27558;SDS011;15002;52.028;5.670;2023-09-08T02:41:19;11.10;;;8.55;;
27558;SDS011;15002;52.028;5.670;2023-09-08T02:43:45;11.63;;;9.48;;
27558;SDS011;15002;52.028;5.670;2023-09-08T02:46:11;11.38;;;9.27;;
27558;SDS011;15002;52.028;5.670;2023-09-08T02:48:36;12.07;;;9.23;;
27558;SDS011;15002;52.028;5.670;2023-09-08T02:51:02;13.15;;;8.88;;
27558;SDS011;15002;52.028;5.670;2023-09-08T02:53:28;10.10;;;8.48;;
27558;SDS011;15002;52.028;5.670;2023-09-08T02:55:54;10.32;;;9.10;;
27558;SDS011;15002;52.028;5.670;2023-09-08T02:58:20;12.73;;;8.98;;
27558;SDS011;15002;52.028;5.670;2023-09-08T03:00:46;16.52;;;9.60;;
27558;SDS011;15002;52.028;5.670;2023-09-08T03:03:11;10.90;;;9.45;;
27558;SDS011;15002;52.028;5.670;2023-09-08T03:05:37;12.15;;;9.52;;
27558;SDS011;15002;52.028;5.670;2023-09-08T03:08:03;10.82;;;9.27;;
27558;SDS011;15002;52.028;5.670;2023-09-08T03:10:30;11.38;;;9.27;;
27558;SDS011;15002;52.028;5.670;2023-09-08T03:12:59;15.10;;;9.43;;
27558;SDS011;15002;52.028;5.670;2023-09-08T03:15:31;12.57;;;9.55;;
27558;SDS011;15002;52.028;5.670;2023-09-08T03:17:57;12.85;;;9.23;;
27558;SDS011;15002;52.028;5.670;2023-09-08T03:20:24;12.07;;;9.82;;
27558;SDS011;15002;52.028;5.670;2023-09-08T03:22:53;10.93;;;9.17;;
27558;SDS011;15002;52.028;5.670;2023-09-08T03:25:20;13.98;;;9.52;;
27558;SDS011;15002;52.028;5.670;2023-09-08T03:27:46;15.68;;;9.80;;
27558;SDS011;15002;52.028;5.670;2023-09-08T03:30:12;11.60;;;9.38;;
27558;SDS011;15002;52.028;5.670;2023-09-08T03:32:38;14.23;;;9.68;;
27558;SDS011;15002;52.028;5.670;2023-09-08T03:35:04;11.90;;;9.10;;
27558;SDS011;15002;52.028;5.670;2023-09-08T03:37:36;11.27;;;9.75;;
27558;SDS011;15002;52.028;5.670;2023-09-08T03:40:02;11.48;;;9.25;;
27558;SDS011;15002;52.028;5.670;2023-09-08T03:42:30;13.68;;;10.15;;
27558;SDS011;15002;52.028;5.670;2023-09-08T03:44:56;10.75;;;9.38;;
27558;SDS011;15002;52.028;5.670;2023-09-08T03:47:21;15.32;;;10.38;;
27558;SDS011;15002;52.028;5.670;2023-09-08T03:49:47;14.48;;;10.52;;
27558;SDS011;15002;52.028;5.670;2023-09-08T03:52:12;13.48;;;9.65;;
27558;SDS011;15002;52.028;5.670;2023-09-08T03:54:38;14.15;;;9.57;;
27558;SDS011;15002;52.028;5.670;2023-09-08T03:57:04;13.43;;;9.75;;
27558;SDS011;15002;52.028;5.670;2023-09-08T03:59:29;12.60;;;9.68;;
27558;SDS011;15002;52.028;5.670;2023-09-08T04:01:55;12.43;;;9.35;;
27558;SDS011;15002;52.028;5.670;2023-09-08T04:04:21;13.07;;;9.77;;
27558;SDS011;15002;52.028;5.670;2023-09-08T04:06:47;14.23;;;9.27;;
27558;SDS011;15002;52.028;5.670;2023-09-08T04:09:12;11.20;;;9.52;;
27558;SDS011;15002;52.028;5.670;2023-09-08T04:11:38;11.10;;;9.70;;
27558;SDS011;15002;52.028;5.670;2023-09-08T04:14:04;12.50;;;10.45;;
27558;SDS011;15002;52.028;5.670;2023-09-08T04:16:29;12.02;;;10.15;;
27558;SDS011;15002;52.028;5.670;2023-09-08T04:18:55;13.20;;;10.52;;
27558;SDS011;15002;52.028;5.670;2023-09-08T04:21:21;12.88;;;10.13;;
27558;SDS011;15002;52.028;5.670;2023-09-08T04:23:46;13.15;;;10.20;;
27558;SDS011;15002;52.028;5.670;2023-09-08T04:26:12;12.30;;;10.32;;
27558;SDS011;15002;52.028;5.670;2023-09-08T04:28:38;11.82;;;9.73;;
27558;SDS011;15002;52.028;5.670;2023-09-08T04:31:05;13.68;;;10.57;;
27558;SDS011;15002;52.028;5.670;2023-09-08T04:33:30;12.02;;;9.80;;
27558;SDS011;15002;52.028;5.670;2023-09-08T04:35:56;15.27;;;10.27;;
27558;SDS011;15002;52.028;5.670;2023-09-08T04:38:22;13.18;;;10.43;;
27558;SDS011;15002;52.028;5.670;2023-09-08T04:40:47;15.50;;;11.05;;
27558;SDS011;15002;52.028;5.670;2023-09-08T04:43:13;12.77;;;10.10;;
27558;SDS011;15002;52.028;5.670;2023-09-08T04:45:39;13.27;;;10.57;;
27558;SDS011;15002;52.028;5.670;2023-09-08T04:48:05;16.95;;;10.63;;
27558;SDS011;15002;52.028;5.670;2023-09-08T04:50:30;13.80;;;9.93;;
27558;SDS011;15002;52.028;5.670;2023-09-08T04:52:56;12.30;;;10.02;;
27558;SDS011;15002;52.028;5.670;2023-09-08T04:55:22;13.18;;;10.88;;
27558;SDS011;15002;52.028;5.670;2023-09-08T04:57:47;14.60;;;10.57;;
27558;SDS011;15002;52.028;5.670;2023-09-08T05:00:13;12.20;;;9.95;;
27558;SDS011;15002;52.028;5.670;2023-09-08T05:02:39;14.50;;;10.82;;
27558;SDS011;15002;52.028;5.670;2023-09-08T05:05:05;16.80;;;10.27;;
27558;SDS011;15002;52.028;5.670;2023-09-08T05:07:31;12.18;;;10.05;;
27558;SDS011;15002;52.028;5.670;2023-09-08T05:10:00;14.05;;;10.30;;
27558;SDS011;15002;52.028;5.670;2023-09-08T05:12:26;13.05;;;10.07;;
27558;SDS011;15002;52.028;5.670;2023-09-08T05:14:52;12.32;;;10.35;;
27558;SDS011;15002;52.028;5.670;2023-09-08T05:17:21;14.55;;;10.65;;
27558;SDS011;15002;52.028;5.670;2023-09-08T05:19:48;13.98;;;10.60;;
27558;SDS011;15002;52.028;5.670;2023-09-08T05:22:14;16.65;;;10.88;;
27558;SDS011;15002;52.028;5.670;2023-09-08T05:24:40;15.40;;;10.82;;
27558;SDS011;15002;52.028;5.670;2023-09-08T05:27:05;12.25;;;10.05;;
27558;SDS011;15002;52.028;5.670;2023-09-08T05:29:31;13.73;;;10.80;;
27558;SDS011;15002;52.028;5.670;2023-09-08T05:31:56;15.13;;;11.00;;
27558;SDS011;15002;52.028;5.670;2023-09-08T05:34:22;14.00;;;10.63;;
27558;SDS011;15002;52.028;5.670;2023-09-08T05:36:48;13.52;;;10.55;;
27558;SDS011;15002;52.028;5.670;2023-09-08T05:39:16;13.98;;;11.00;;
27558;SDS011;15002;52.028;5.670;2023-09-08T05:41:44;13.97;;;9.63;;
27558;SDS011;15002;52.028;5.670;2023-09-08T05:44:10;12.20;;;10.05;;
27558;SDS011;15002;52.028;5.670;2023-09-08T05:46:35;14.40;;;10.38;;
27558;SDS011;15002;52.028;5.670;2023-09-08T05:49:01;14.20;;;10.45;;
27558;SDS011;15002;52.028;5.670;2023-09-08T05:51:27;14.18;;;10.52;;
27558;SDS011;15002;52.028;5.670;2023-09-08T05:53:52;13.98;;;10.52;;
27558;SDS011;15002;52.028;5.670;2023-09-08T05:56:18;12.27;;;10.10;;
27558;SDS011;15002;52.028;5.670;2023-09-08T05:58:45;12.23;;;9.93;;
27558;SDS011;15002;52.028;5.670;2023-09-08T06:01:10;14.95;;;10.55;;
27558;SDS011;15002;52.028;5.670;2023-09-08T06:03:36;13.13;;;10.63;;
27558;SDS011;15002;52.028;5.670;2023-09-08T06:06:02;13.75;;;10.50;;
27558;SDS011;15002;52.028;5.670;2023-09-08T06:08:27;17.15;;;10.13;;
27558;SDS011;15002;52.028;5.670;2023-09-08T06:10:53;13.82;;;9.35;;
27558;SDS011;15002;52.028;5.670;2023-09-08T06:13:18;14.55;;;10.02;;
27558;SDS011;15002;52.028;5.670;2023-09-08T06:15:44;16.95;;;10.65;;
27558;SDS011;15002;52.028;5.670;2023-09-08T06:18:10;13.80;;;9.50;;
27558;SDS011;15002;52.028;5.670;2023-09-08T06:20:36;13.85;;;9.65;;
27558;SDS011;15002;52.028;5.670;2023-09-08T06:23:08;12.57;;;8.35;;
27558;SDS011;15002;52.028;5.670;2023-09-08T06:25:34;12.95;;;8.70;;
27558;SDS011;15002;52.028;5.670;2023-09-08T06:28:00;10.55;;;8.45;;
27558;SDS011;15002;52.028;5.670;2023-09-08T06:30:26;10.90;;;8.43;;
27558;SDS011;15002;52.028;5.670;2023-09-08T06:32:52;16.42;;;8.57;;
27558;SDS011;15002;52.028;5.670;2023-09-08T06:35:17;10.68;;;8.35;;
27558;SDS011;15002;52.028;5.670;2023-09-08T06:37:43;11.00;;;7.95;;
27558;SDS011;15002;52.028;5.670;2023-09-08T06:40:09;14.00;;;8.68;;
27558;SDS011;15002;52.028;5.670;2023-09-08T06:42:34;10.55;;;7.70;;
27558;SDS011;15002;52.028;5.670;2023-09-08T06:45:01;12.07;;;7.75;;
27558;SDS011;15002;52.028;5.670;2023-09-08T06:47:27;14.48;;;8.63;;
27558;SDS011;15002;52.028;5.670;2023-09-08T06:49:52;9.73;;;8.32;;
27558;SDS011;15002;52.028;5.670;2023-09-08T06:52:18;9.98;;;8.32;;
27558;SDS011;15002;52.028;5.670;2023-09-08T06:54:44;9.98;;;7.78;;
27558;SDS011;15002;52.028;5.670;2023-09-08T06:57:12;9.95;;;7.68;;
27558;SDS011;15002;52.028;5.670;2023-09-08T06:59:38;8.35;;;7.10;;
27558;SDS011;15002;52.028;5.670;2023-09-08T07:02:04;10.98;;;7.78;;
27558;SDS011;15002;52.028;5.670;2023-09-08T07:04:30;11.52;;;6.97;;
27558;SDS011;15002;52.028;5.670;2023-09-08T07:06:56;9.45;;;7.28;;
27558;SDS011;15002;52.028;5.670;2023-09-08T07:09:22;9.77;;;6.97;;
27558;SDS011;15002;52.028;5.670;2023-09-08T07:11:48;11.65;;;7.47;;
27558;SDS011;15002;52.028;5.670;2023-09-08T07:14:13;9.18;;;7.05;;
27558;SDS011;15002;52.028;5.670;2023-09-08T07:16:39;9.57;;;7.05;;
27558;SDS011;15002;52.028;5.670;2023-09-08T07:19:05;7.47;;;6.78;;
27558;SDS011;15002;52.028;5.670;2023-09-08T07:21:30;9.80;;;6.97;;
27558;SDS011;15002;52.028;5.670;2023-09-08T07:23:56;11.25;;;7.88;;
27558;SDS011;15002;52.028;5.670;2023-09-08T07:26:23;9.18;;;7.13;;
27558;SDS011;15002;52.028;5.670;2023-09-08T07:28:48;9.18;;;7.35;;
27558;SDS011;15002;52.028;5.670;2023-09-08T07:31:14;8.75;;;7.07;;
27558;SDS011;15002;52.028;5.670;2023-09-08T07:33:40;10.23;;;7.55;;
27558;SDS011;15002;52.028;5.670;2023-09-08T07:36:06;10.63;;;7.05;;
27558;SDS011;15002;52.028;5.670;2023-09-08T07:38:34;11.48;;;7.47;;
27558;SDS011;15002;52.028;5.670;2023-09-08T07:41:01;9.15;;;7.38;;
27558;SDS011;15002;52.028;5.670;2023-09-08T07:43:27;9.20;;;7.00;;
27558;SDS011;15002;52.028;5.670;2023-09-08T07:45:53;10.43;;;7.57;;
27558;SDS011;15002;52.028;5.670;2023-09-08T07:48:19;7.90;;;7.10;;
27558;SDS011;15002;52.028;5.670;2023-09-08T07:50:44;11.90;;;7.50;;
27558;SDS011;15002;52.028;5.670;2023-09-08T07:53:10;12.20;;;7.22;;
27558;SDS011;15002;52.028;5.670;2023-09-08T07:55:36;7.70;;;6.82;;
27558;SDS011;15002;52.028;5.670;2023-09-08T07:58:02;10.05;;;6.75;;
27558;SDS011;15002;52.028;5.670;2023-09-08T08:00:31;11.05;;;6.90;;
27558;SDS011;15002;52.028;5.670;2023-09-08T08:02:57;11.00;;;6.68;;
27558;SDS011;15002;52.028;5.670;2023-09-08T08:05:23;8.70;;;7.00;;
27558;SDS011;15002;52.028;5.670;2023-09-08T08:07:50;8.82;;;7.40;;
27558;SDS011;15002;52.028;5.670;2023-09-08T08:10:16;8.57;;;6.63;;
27558;SDS011;15002;52.028;5.670;2023-09-08T08:12:44;8.98;;;6.47;;
27558;SDS011;15002;52.028;5.670;2023-09-08T08:15:09;10.20;;;6.78;;
27558;SDS011;15002;52.028;5.670;2023-09-08T08:17:36;9.45;;;6.93;;
27558;SDS011;15002;52.028;5.670;2023-09-08T08:20:03;10.50;;;6.97;;
27558;SDS011;15002;52.028;5.670;2023-09-08T08:22:34;8.70;;;6.93;;
27558;SDS011;15002;52.028;5.670;2023-09-08T08:25:01;7.30;;;6.50;;
27558;SDS011;15002;52.028;5.670;2023-09-08T08:27:26;9.77;;;6.95;;
27558;SDS011;15002;52.028;5.670;2023-09-08T08:29:52;13.77;;;7.53;;
27558;SDS011;15002;52.028;5.670;2023-09-08T08:32:17;9.48;;;6.63;;
27558;SDS011;15002;52.028;5.670;2023-09-08T08:34:43;7.88;;;6.65;;
27558;SDS011;15002;52.028;5.670;2023-09-08T08:37:10;10.07;;;7.15;;
27558;SDS011;15002;52.028;5.670;2023-09-08T08:39:36;11.20;;;6.63;;
27558;SDS011;15002;52.028;5.670;2023-09-08T08:42:08;10.07;;;7.28;;
27558;SDS011;15002;52.028;5.670;2023-09-08T08:44:35;14.35;;;6.78;;
27558;SDS011;15002;52.028;5.670;2023-09-08T08:47:03;16.85;;;7.03;;
27558;SDS011;15002;52.028;5.670;2023-09-08T08:49:31;11.98;;;7.43;;
27558;SDS011;15002;52.028;5.670;2023-09-08T08:51:57;8.38;;;6.97;;
27558;SDS011;15002;52.028;5.670;2023-09-08T08:54:24;11.35;;;6.22;;
27558;SDS011;15002;52.028;5.670;2023-09-08T08:56:49;7.75;;;6.20;;
27558;SDS011;15002;52.028;5.670;2023-09-08T08:59:16;7.78;;;6.30;;
27558;SDS011;15002;52.028;5.670;2023-09-08T09:01:42;8.30;;;6.10;;
27558;SDS011;15002;52.028;5.670;2023-09-08T09:04:07;9.15;;;6.57;;
27558;SDS011;15002;52.028;5.670;2023-09-08T09:06:34;15.50;;;6.28;;
27558;SDS011;15002;52.028;5.670;2023-09-08T09:09:00;7.40;;;6.70;;
27558;SDS011;15002;52.028;5.670;2023-09-08T09:11:29;9.48;;;6.72;;
27558;SDS011;15002;52.028;5.670;2023-09-08T09:13:56;7.75;;;6.30;;
27558;SDS011;15002;52.028;5.670;2023-09-08T09:16:22;8.02;;;6.88;;
27558;SDS011;15002;52.028;5.670;2023-09-08T09:18:55;11.32;;;6.75;;
27558;SDS011;15002;52.028;5.670;2023-09-08T09:21:41;10.55;;;6.60;;
27558;SDS011;15002;52.028;5.670;2023-09-08T09:24:31;8.43;;;6.53;;
27558;SDS011;15002;52.028;5.670;2023-09-08T09:29:31;7.75;;;6.95;;
27558;SDS011;15002;52.028;5.670;2023-09-08T09:32:04;9.07;;;6.72;;
27558;SDS011;15002;52.028;5.670;2023-09-08T09:34:31;9.80;;;6.72;;
27558;SDS011;15002;52.028;5.670;2023-09-08T09:36:57;12.10;;;7.15;;
27558;SDS011;15002;52.028;5.670;2023-09-08T09:39:24;9.30;;;6.32;;
27558;SDS011;15002;52.028;5.670;2023-09-08T09:41:54;8.25;;;6.68;;
27558;SDS011;15002;52.028;5.670;2023-09-08T09:44:21;10.38;;;6.82;;
27558;SDS011;15002;52.028;5.670;2023-09-08T09:46:48;8.73;;;6.25;;
27558;SDS011;15002;52.028;5.670;2023-09-08T09:49:16;7.65;;;6.70;;
27558;SDS011;15002;52.028;5.670;2023-09-08T09:51:46;7.53;;;6.43;;
27558;SDS011;15002;52.028;5.670;2023-09-08T09:54:13;7.32;;;6.45;;
27558;SDS011;15002;52.028;5.670;2023-09-08T09:56:40;10.38;;;6.57;;
27558;SDS011;15002;52.028;5.670;2023-09-08T09:59:10;8.52;;;6.47;;
27558;SDS011;15002;52.028;5.670;2023-09-08T10:01:38;7.88;;;7.07;;
27558;SDS011;15002;52.028;5.670;2023-09-08T10:04:04;7.50;;;6.53;;
27558;SDS011;15002;52.028;5.670;2023-09-08T10:06:32;8.82;;;7.53;;
27558;SDS011;15002;52.028;5.670;2023-09-08T10:09:02;8.27;;;7.05;;
27558;SDS011;15002;52.028;5.670;2023-09-08T10:11:33;7.32;;;6.57;;
27558;SDS011;15002;52.028;5.670;2023-09-08T10:14:02;7.95;;;6.60;;
27558;SDS011;15002;52.028;5.670;2023-09-08T10:16:28;10.20;;;7.05;;
27558;SDS011;15002;52.028;5.670;2023-09-08T10:18:58;8.10;;;6.88;;
27558;SDS011;15002;52.028;5.670;2023-09-08T10:21:26;11.10;;;7.35;;
27558;SDS011;15002;52.028;5.670;2023-09-08T10:23:56;10.90;;;6.63;;
27558;SDS011;15002;52.028;5.670;2023-09-08T10:26:29;10.40;;;6.40;;
27558;SDS011;15002;52.028;5.670;2023-09-08T10:28:57;15.10;;;7.63;;
27558;SDS011;15002;52.028;5.670;2023-09-08T10:31:25;7.65;;;6.75;;
27558;SDS011;15002;52.028;5.670;2023-09-08T10:33:53;9.35;;;7.03;;
27558;SDS011;15002;52.028;5.670;2023-09-08T10:36:20;9.15;;;6.82;;
27558;SDS011;15002;52.028;5.670;2023-09-08T10:38:46;8.88;;;6.75;;
27558;SDS011;15002;52.028;5.670;2023-09-08T10:43:43;8.65;;;7.38;;
27558;SDS011;15002;52.028;5.670;2023-09-08T10:46:09;9.20;;;6.82;;
27558;SDS011;15002;52.028;5.670;2023-09-08T10:48:41;10.13;;;7.57;;
27558;SDS011;15002;52.028;5.670;2023-09-08T10:51:12;9.40;;;6.80;;
27558;SDS011;15002;52.028;5.670;2023-09-08T10:53:39;7.32;;;6.63;;
27558;SDS011;15002;52.028;5.670;2023-09-08T10:56:05;9.25;;;8.15;;
27558;SDS011;15002;52.028;5.670;2023-09-08T10:58:37;10.05;;;7.15;;
27558;SDS011;15002;52.028;5.670;2023-09-08T11:01:05;8.30;;;7.18;;
27558;SDS011;15002;52.028;5.670;2023-09-08T11:06:04;14.55;;;7.55;;
27558;SDS011;15002;52.028;5.670;2023-09-08T11:08:30;8.13;;;7.32;;
27558;SDS011;15002;52.028;5.670;2023-09-08T11:11:00;9.82;;;7.72;;
27558;SDS011;15002;52.028;5.670;2023-09-08T11:13:26;8.80;;;7.82;;
27558;SDS011;15002;52.028;5.670;2023-09-08T11:15:55;10.48;;;8.45;;
27558;SDS011;15002;52.028;5.670;2023-09-08T11:18:30;11.82;;;8.13;;
27558;SDS011;15002;52.028;5.670;2023-09-08T11:20:59;11.20;;;7.78;;
27558;SDS011;15002;52.028;5.670;2023-09-08T11:23:27;8.63;;;7.63;;
27558;SDS011;15002;52.028;5.670;2023-09-08T11:25:53;8.80;;;7.50;;
27558;SDS011;15002;52.028;5.670;2023-09-08T11:28:19;8.68;;;7.28;;
27558;SDS011;15002;52.028;5.670;2023-09-08T11:30:47;9.82;;;6.88;;
27558;SDS011;15002;52.028;5.670;2023-09-08T11:33:14;7.95;;;7.15;;
27558;SDS011;15002;52.028;5.670;2023-09-08T11:35:41;11.82;;;7.70;;
27558;SDS011;15002;52.028;5.670;2023-09-08T11:38:09;11.65;;;8.00;;
27558;SDS011;15002;52.028;5.670;2023-09-08T11:40:35;11.25;;;7.85;;
27558;SDS011;15002;52.028;5.670;2023-09-08T11:43:02;10.48;;;7.22;;
27558;SDS011;15002;52.028;5.670;2023-09-08T11:45:29;8.27;;;6.90;;
27558;SDS011;15002;52.028;5.670;2023-09-08T11:47:58;8.18;;;7.38;;
27558;SDS011;15002;52.028;5.670;2023-09-08T11:50:24;9.73;;;7.43;;
27558;SDS011;15002;52.028;5.670;2023-09-08T11:52:51;12.23;;;7.20;;
27558;SDS011;15002;52.028;5.670;2023-09-08T11:55:18;9.52;;;7.53;;
27558;SDS011;15002;52.028;5.670;2023-09-08T11:57:49;9.68;;;7.60;;
27558;SDS011;15002;52.028;5.670;2023-09-08T12:00:19;9.10;;;7.00;;
27558;SDS011;15002;52.028;5.670;2023-09-08T12:02:47;7.68;;;6.97;;
27558;SDS011;15002;52.028;5.670;2023-09-08T12:05:26;9.43;;;7.22;;
27558;SDS011;15002;52.028;5.670;2023-09-08T12:07:53;8.85;;;7.43;;
27558;SDS011;15002;52.028;5.670;2023-09-08T12:10:21;10.13;;;6.97;;
27558;SDS011;15002;52.028;5.670;2023-09-08T12:12:56;7.32;;;6.63;;
27558;SDS011;15002;52.028;5.670;2023-09-08T12:15:32;8.90;;;6.63;;
27558;SDS011;15002;52.028;5.670;2023-09-08T12:17:59;13.15;;;7.30;;
27558;SDS011;15002;52.028;5.670;2023-09-08T12:20:29;8.32;;;6.30;;
27558;SDS011;15002;52.028;5.670;2023-09-08T12:22:59;7.00;;;6.30;;
27558;SDS011;15002;52.028;5.670;2023-09-08T12:25:27;10.73;;;6.88;;
27558;SDS011;15002;52.028;5.670;2023-09-08T12:27:53;11.88;;;7.40;;
27558;SDS011;15002;52.028;5.670;2023-09-08T12:30:20;8.88;;;7.45;;
27558;SDS011;15002;52.028;5.670;2023-09-08T12:32:54;8.48;;;7.28;;
27558;SDS011;15002;52.028;5.670;2023-09-08T12:35:22;11.18;;;7.30;;
27558;SDS011;15002;52.028;5.670;2023-09-08T12:37:52;9.68;;;6.97;;
27558;SDS011;15002;52.028;5.670;2023-09-08T12:40:21;9.20;;;7.38;;
27558;SDS011;15002;52.028;5.670;2023-09-08T12:42:47;9.65;;;6.97;;
27558;SDS011;15002;52.028;5.670;2023-09-08T12:45:13;11.38;;;7.53;;
27558;SDS011;15002;52.028;5.670;2023-09-08T12:47:39;10.18;;;7.47;;
27558;SDS011;15002;52.028;5.670;2023-09-08T12:50:04;10.32;;;7.68;;
27558;SDS011;15002;52.028;5.670;2023-09-08T12:52:30;9.23;;;7.35;;
27558;SDS011;15002;52.028;5.670;2023-09-08T12:54:57;13.43;;;8.00;;
27558;SDS011;15002;52.028;5.670;2023-09-08T12:57:22;8.60;;;7.78;;
27558;SDS011;15002;52.028;5.670;2023-09-08T12:59:48;10.82;;;6.85;;
27558;SDS011;15002;52.028;5.670;2023-09-08T13:02:16;10.15;;;7.10;;
27558;SDS011;15002;52.028;5.670;2023-09-08T13:04:42;7.50;;;6.63;;
27558;SDS011;15002;52.028;5.670;2023-09-08T13:07:13;7.85;;;7.05;;
27558;SDS011;15002;52.028;5.670;2023-09-08T13:09:42;9.07;;;6.40;;
27558;SDS011;15002;52.028;5.670;2023-09-08T13:12:08;7.85;;;6.90;;
27558;SDS011;15002;52.028;5.670;2023-09-08T13:14:38;10.85;;;7.43;;
27558;SDS011;15002;52.028;5.670;2023-09-08T13:17:04;7.45;;;6.75;;
27558;SDS011;15002;52.028;5.670;2023-09-08T13:19:31;10.73;;;7.50;;
27558;SDS011;15002;52.028;5.670;2023-09-08T13:21:57;10.77;;;7.43;;
27558;SDS011;15002;52.028;5.670;2023-09-08T13:24:23;9.20;;;7.00;;
27558;SDS011;15002;52.028;5.670;2023-09-08T13:26:49;11.35;;;7.20;;
27558;SDS011;15002;52.028;5.670;2023-09-08T13:29:15;7.65;;;6.80;;
27558;SDS011;15002;52.028;5.670;2023-09-08T13:31:41;8.52;;;7.38;;
27558;SDS011;15002;52.028;5.670;2023-09-08T13:34:07;12.07;;;8.50;;
27558;SDS011;15002;52.028;5.670;2023-09-08T13:36:33;9.73;;;8.15;;
27558;SDS011;15002;52.028;5.670;2023-09-08T13:38:58;12.48;;;7.53;;
27558;SDS011;15002;52.028;5.670;2023-09-08T13:41:25;10.57;;;8.48;;
27558;SDS011;15002;52.028;5.670;2023-09-08T13:44:08;9.00;;;8.10;;
27558;SDS011;15002;52.028;5.670;2023-09-08T13:46:33;9.75;;;7.93;;
27558;SDS011;15002;52.028;5.670;2023-09-08T13:48:59;8.77;;;7.47;;
27558;SDS011;15002;52.028;5.670;2023-09-08T13:51:25;10.23;;;7.80;;
27558;SDS011;15002;52.028;5.670;2023-09-08T13:53:51;8.88;;;7.95;;
27558;SDS011;15002;52.028;5.670;2023-09-08T13:56:17;8.52;;;7.60;;
27558;SDS011;15002;52.028;5.670;2023-09-08T13:58:42;8.52;;;7.63;;
27558;SDS011;15002;52.028;5.670;2023-09-08T14:01:10;10.40;;;8.50;;
27558;SDS011;15002;52.028;5.670;2023-09-08T14:03:36;9.10;;;8.18;;
27558;SDS011;15002;52.028;5.670;2023-09-08T14:06:02;9.57;;;8.60;;
27558;SDS011;15002;52.028;5.670;2023-09-08T14:08:27;12.98;;;9.18;;
27558;SDS011;15002;52.028;5.670;2023-09-08T14:10:53;9.60;;;8.48;;
27558;SDS011;15002;52.028;5.670;2023-09-08T14:13:19;12.02;;;8.05;;
27558;SDS011;15002;52.028;5.670;2023-09-08T14:15:45;8.68;;;7.78;;
27558;SDS011;15002;52.028;5.670;2023-09-08T14:18:10;9.40;;;7.70;;
27558;SDS011;15002;52.028;5.670;2023-09-08T14:20:36;8.75;;;7.95;;
27558;SDS011;15002;52.028;5.670;2023-09-08T14:23:02;10.23;;;8.10;;
27558;SDS011;15002;52.028;5.670;2023-09-08T14:25:28;9.63;;;8.73;;
27558;SDS011;15002;52.028;5.670;2023-09-08T14:27:53;14.43;;;8.80;;
27558;SDS011;15002;52.028;5.670;2023-09-08T14:30:19;10.40;;;8.70;;
27558;SDS011;15002;52.028;5.670;2023-09-08T14:32:46;15.02;;;9.07;;
27558;SDS011;15002;52.028;5.670;2023-09-08T14:35:11;9.50;;;8.50;;
27558;SDS011;15002;52.028;5.670;2023-09-08T14:37:37;9.43;;;8.45;;
27558;SDS011;15002;52.028;5.670;2023-09-08T14:40:03;12.77;;;8.77;;
27558;SDS011;15002;52.028;5.670;2023-09-08T14:42:29;9.40;;;8.43;;
27558;SDS011;15002;52.028;5.670;2023-09-08T14:44:55;13.18;;;7.93;;
27558;SDS011;15002;52.028;5.670;2023-09-08T14:47:21;8.50;;;7.60;;